Flight Track Log - Related Links

Times and Time Zones

All times are in EST time to prevent confusion due to time zone crossing. See the AWE2186 flight status page for this flight to view local times or setup timezone preferences in your user account.

Time Position Orientation Groundspeed Altitude Reporting Facility
EST Latitude Longitude Course Direction KTS MPH feet Rate Location/Type
Mon 04:39:16 PM 38.8833 -77.0500 92° East 164 189 1,600  Level Potomac TRACON
Mon 04:41:06 PM 38.9472 -77.1369 313° West 189 217 7,200 3,035 Climbing Washington Center
Mon 04:42:00 PM 39.1648 -76.5445 90° East  Level Estimated
Mon 04:42:06 PM 39.0072 -77.1678 338° Northwest 204 235 10,200  Level Washington Center
Mon 04:43:00 PM 39.2427 -76.4205 47° Northeast  Level Estimated
Mon 04:43:06 PM 39.0419 -77.0536 69° East 205 236 11,700  Level Washington Center
Mon 04:44:00 PM 39.2387 -76.2608 92° East  Level FlightAware Approximate
Mon 04:44:07 PM 39.0333 -76.9036 94° East 292 336 15,200  Level Washington Center
Mon 04:45:08 PM 39.0308 -76.7539 91° East 359 413 17,700 2,628 Climbing Washington Center
Mon 04:46:08 PM 39.0281 -76.5964 91° East 405 466 20,500 1,729 Climbing Washington Center
Mon 04:47:06 PM 39.0269 -76.4439 90° East 424 488 21,100 303 Climbing Washington Center
Mon 04:48:07 PM 39.0156 -76.2994 96° East 418 481 21,100  Level Washington Center
Mon 04:49:07 PM 38.9619 -76.1817 120° Southeast 387 445 21,100  Level Washington Center
Mon 04:50:08 PM 38.9103 -76.0611 119° Southeast 382 440 21,100  Level Washington Center
Mon 04:51:08 PM 38.8564 -75.9408 120° Southeast 382 440 21,100  Level Washington Center
Mon 04:52:06 PM 38.8672 -75.7997 84° East 377 434 21,100  Level Washington Center
Mon 04:53:06 PM 38.9508 -75.7092 40° Northeast 330 380 21,100  Level Washington Center
Mon 04:54:07 PM 39.0489 -75.6425 28° Northeast 349 402 21,100  Level Washington Center
Mon 04:55:07 PM 39.1531 -75.5703 28° Northeast 383 441 21,100  Level Washington Center
Mon 04:56:07 PM 39.2656 -75.4869 30° Northeast 426 490 21,100  Level Washington Center
Mon 04:57:08 PM 39.3694 -75.3956 34° Northeast 451 519 21,100 -303 Level Washington Center
Mon 04:58:06 PM 39.4861 -75.3469 18° North 450 518 20,500 -763 Descending Washington Center
Mon 04:59:06 PM 39.6050 -75.3250 North 425 489 19,600 -694 Descending Washington Center
Mon 05:00:07 PM 39.7214 -75.2731 19° North 413 475 19,100 -590 Descending Washington Center
Mon 05:01:08 PM 39.7897 -75.1353 57° Northeast 403 464 18,400 -1,765 Descending Washington Center
Mon 05:02:06 PM 39.8517 -75.0211 55° Northeast 413 475 15,600 -2,847 Descending Washington Center
Mon 05:03:06 PM 39.9322 -74.8853 52° Northeast 427 491 12,800 -1,916 Descending Washington Center
Mon 05:04:52 PM 40.0667 -74.6833 49° Northeast 390 449 10,300 -1,012 Descending New York TRACON
Mon 05:05:52 PM 40.1333 -74.6000 44° Northeast 370 426 10,000 -150 Descending New York TRACON
Mon 05:06:52 PM 40.2000 -74.5000 49° Northeast 363 418 10,000 -446 Level New York TRACON
Mon 05:07:53 PM 40.2667 -74.4167 44° Northeast 306 352 9,100 -950 Descending New York TRACON
Mon 05:08:52 PM 40.3333 -74.3500 37° Northeast 289 333 8,100 -555 Descending New York TRACON
Mon 05:09:52 PM 40.4000 -74.2833 37° Northeast 279 321 8,000 -50 Descending New York TRACON
Mon 05:10:52 PM 40.4500 -74.2333 37° Northeast 251 289 8,000 -104 Level New York TRACON
Mon 05:11:47 PM 40.5000 -74.1833 37° Northeast 252 290 7,800 -750 Descending New York TRACON
Mon 05:12:52 PM 40.5667 -74.1167 37° Northeast 247 284 6,500 -1,248 Descending New York TRACON
Mon 05:13:52 PM 40.6167 -74.0500 45° Northeast 244 281 5,200 -1,200 Descending New York TRACON
Mon 05:14:52 PM 40.6667 -74.0000 37° Northeast 243 280 4,100 -600 Descending New York TRACON
Mon 05:15:52 PM 40.7167 -73.9333 45° Northeast 248 285 4,000 -50 Descending New York TRACON
Mon 05:16:53 PM 40.7500 -73.8667 57° Northeast 249 287 4,000  Level New York TRACON
Mon 05:17:52 PM 40.7833 -73.7833 62° Northeast 234 269 4,000  Level New York TRACON
Mon 05:18:52 PM 40.8167 -73.7333 49° Northeast 201 231 4,000  Level New York TRACON
Mon 05:19:53 PM 40.8667 -73.7000 27° Northeast 207 238 4,000  Level New York TRACON
Mon 05:20:47 PM 40.9167 -73.6667 27° Northeast 201 231 4,000  Level New York TRACON
Mon 05:21:47 PM 40.9500 -73.7000 323° Northwest 167 192 4,000 -192 Level New York TRACON
Mon 05:22:52 PM 40.9333 -73.7500 246° West 145 167 3,600 -600 Descending New York TRACON
Mon 05:23:47 PM 40.9000 -73.7667 201° Southwest 150 173 2,800 -843 Descending New York TRACON
Mon 05:24:53 PM 40.8667 -73.8000 217° Southwest 149 171 1,900 -762 Descending New York TRACON
Mon 05:25:53 PM 40.8333 -73.8333 217° Southwest 119 137 1,200 -650 Descending New York TRACON
Mon 05:26:53 PM 40.8000 -73.8500 201° Southwest 117 135 600 -600 Descending New York TRACON

Login

Don't have an account? Register now (free) for customized features, flight alerts, and more!